sensor_id;sensor_type;location;lat;lon;timestamp;pressure;altitude;pressure_sealevel;temperature
25985;BMP280;66753;53.848;10.658;2024-02-23T00:04:34;97752.22;;;11.59
25985;BMP280;66753;53.848;10.658;2024-02-23T00:19:36;97762.97;;;11.33
25985;BMP280;66753;53.848;10.658;2024-02-23T00:34:38;97766.06;;;11.12
25985;BMP280;66753;53.848;10.658;2024-02-23T00:49:39;97835.56;;;11.00
25985;BMP280;66753;53.848;10.658;2024-02-23T01:04:40;97829.13;;;10.78
25985;BMP280;66753;53.848;10.658;2024-02-23T01:19:43;97920.50;;;10.63
25985;BMP280;66753;53.848;10.658;2024-02-23T01:34:46;98053.00;;;9.41
25985;BMP280;66753;53.848;10.658;2024-02-23T01:49:48;98094.00;;;9.09
25985;BMP280;66753;53.848;10.658;2024-02-23T02:04:49;98145.41;;;8.87
25985;BMP280;66753;53.848;10.658;2024-02-23T02:19:50;98196.72;;;8.78
25985;BMP280;66753;53.848;10.658;2024-02-23T02:34:51;98240.47;;;8.76
25985;BMP280;66753;53.848;10.658;2024-02-23T02:49:52;98269.13;;;8.56
25985;BMP280;66753;53.848;10.658;2024-02-23T03:04:54;98300.78;;;8.28
25985;BMP280;66753;53.848;10.658;2024-02-23T03:19:57;98376.81;;;8.02
25985;BMP280;66753;53.848;10.658;2024-02-23T03:34:58;98410.69;;;7.89
25985;BMP280;66753;53.848;10.658;2024-02-23T03:49:59;98469.00;;;7.81
25985;BMP280;66753;53.848;10.658;2024-02-23T04:05:00;98471.22;;;7.72
25985;BMP280;66753;53.848;10.658;2024-02-23T04:20:07;98497.88;;;7.63
25985;BMP280;66753;53.848;10.658;2024-02-23T04:35:11;98536.13;;;7.47
25985;BMP280;66753;53.848;10.658;2024-02-23T04:50:12;98580.81;;;7.36
25985;BMP280;66753;53.848;10.658;2024-02-23T05:05:14;98585.31;;;7.36
25985;BMP280;66753;53.848;10.658;2024-02-23T05:20:16;98614.59;;;7.27
25985;BMP280;66753;53.848;10.658;2024-02-23T05:35:17;98652.22;;;7.28
25985;BMP280;66753;53.848;10.658;2024-02-23T05:50:19;98680.06;;;7.25
25985;BMP280;66753;53.848;10.658;2024-02-23T06:05:20;98718.78;;;7.21
25985;BMP280;66753;53.848;10.658;2024-02-23T06:20:22;98736.41;;;7.17
25985;BMP280;66753;53.848;10.658;2024-02-23T06:35:23;98756.34;;;7.18
25985;BMP280;66753;53.848;10.658;2024-02-23T06:50:25;98778.09;;;7.12
25985;BMP280;66753;53.848;10.658;2024-02-23T07:05:26;98813.97;;;7.23
25985;BMP280;66753;53.848;10.658;2024-02-23T07:20:27;98844.97;;;7.30
25985;BMP280;66753;53.848;10.658;2024-02-23T07:35:28;98865.09;;;7.41
25985;BMP280;66753;53.848;10.658;2024-02-23T07:50:30;98914.84;;;7.46
25985;BMP280;66753;53.848;10.658;2024-02-23T08:05:31;98941.81;;;7.62
25985;BMP280;66753;53.848;10.658;2024-02-23T08:20:33;98968.91;;;7.85
25985;BMP280;66753;53.848;10.658;2024-02-23T08:35:34;98978.38;;;8.16
25985;BMP280;66753;53.848;10.658;2024-02-23T08:50:36;98987.28;;;8.67
25985;BMP280;66753;53.848;10.658;2024-02-23T09:05:38;98987.72;;;9.06
25985;BMP280;66753;53.848;10.658;2024-02-23T09:20:41;98979.16;;;9.23
25985;BMP280;66753;53.848;10.658;2024-02-23T09:35:42;99018.66;;;9.45
25985;BMP280;66753;53.848;10.658;2024-02-23T09:50:44;99032.75;;;9.23
25985;BMP280;66753;53.848;10.658;2024-02-23T10:05:46;99057.59;;;9.55
25985;BMP280;66753;53.848;10.658;2024-02-23T10:20:47;99119.19;;;9.96
25985;BMP280;66753;53.848;10.658;2024-02-23T10:35:56;99123.19;;;10.26
25985;BMP280;66753;53.848;10.658;2024-02-23T10:50:58;99143.88;;;10.14
25985;BMP280;66753;53.848;10.658;2024-02-23T11:06:00;99158.91;;;10.57
25985;BMP280;66753;53.848;10.658;2024-02-23T11:21:05;99170.34;;;10.71
25985;BMP280;66753;53.848;10.658;2024-02-23T11:36:10;99154.44;;;10.64
25985;BMP280;66753;53.848;10.658;2024-02-23T11:51:13;99152.25;;;10.84
25985;BMP280;66753;53.848;10.658;2024-02-23T12:06:15;99146.25;;;10.94
25985;BMP280;66753;53.848;10.658;2024-02-23T12:21:17;99149.22;;;10.89
25985;BMP280;66753;53.848;10.658;2024-02-23T12:36:18;99171.59;;;10.95
25985;BMP280;66753;53.848;10.658;2024-02-23T12:51:25;99183.41;;;11.08
25985;BMP280;66753;53.848;10.658;2024-02-23T13:06:27;99184.19;;;11.12
25985;BMP280;66753;53.848;10.658;2024-02-23T13:21:29;99169.00;;;11.09
25985;BMP280;66753;53.848;10.658;2024-02-23T13:36:32;99182.53;;;10.86
25985;BMP280;66753;53.848;10.658;2024-02-23T13:51:34;99192.31;;;10.72
25985;BMP280;66753;53.848;10.658;2024-02-23T14:06:36;99222.59;;;10.74
25985;BMP280;66753;53.848;10.658;2024-02-23T14:21:38;99223.44;;;10.89
25985;BMP280;66753;53.848;10.658;2024-02-23T14:36:39;99232.44;;;10.70
25985;BMP280;66753;53.848;10.658;2024-02-23T14:51:40;99245.97;;;10.55
25985;BMP280;66753;53.848;10.658;2024-02-23T15:06:43;99249.44;;;10.69
25985;BMP280;66753;53.848;10.658;2024-02-23T15:21:45;99258.25;;;10.87
25985;BMP280;66753;53.848;10.658;2024-02-23T15:36:47;99250.19;;;10.66
25985;BMP280;66753;53.848;10.658;2024-02-23T15:51:48;99261.03;;;10.51
25985;BMP280;66753;53.848;10.658;2024-02-23T16:06:50;99280.53;;;10.29
25985;BMP280;66753;53.848;10.658;2024-02-23T16:21:52;99279.59;;;10.11
25985;BMP280;66753;53.848;10.658;2024-02-23T16:36:53;99290.78;;;9.94
25985;BMP280;66753;53.848;10.658;2024-02-23T16:51:55;99303.75;;;9.73
25985;BMP280;66753;53.848;10.658;2024-02-23T17:06:57;99322.66;;;9.42
25985;BMP280;66753;53.848;10.658;2024-02-23T17:21:58;99329.84;;;9.19
25985;BMP280;66753;53.848;10.658;2024-02-23T17:36:59;99348.34;;;8.93
25985;BMP280;66753;53.848;10.658;2024-02-23T17:52:01;99373.66;;;8.71
25985;BMP280;66753;53.848;10.658;2024-02-23T18:07:02;99386.69;;;8.60
25985;BMP280;66753;53.848;10.658;2024-02-23T18:22:03;99438.44;;;8.65
25985;BMP280;66753;53.848;10.658;2024-02-23T18:37:04;99444.34;;;8.58
25985;BMP280;66753;53.848;10.658;2024-02-23T18:52:08;99441.44;;;8.25
25985;BMP280;66753;53.848;10.658;2024-02-23T19:07:10;99445.22;;;7.90
25985;BMP280;66753;53.848;10.658;2024-02-23T19:22:12;99440.75;;;7.59
25985;BMP280;66753;53.848;10.658;2024-02-23T19:37:14;99448.50;;;7.37
25985;BMP280;66753;53.848;10.658;2024-02-23T19:52:17;99468.38;;;7.19
25985;BMP280;66753;53.848;10.658;2024-02-23T20:07:18;99482.09;;;6.97
25985;BMP280;66753;53.848;10.658;2024-02-23T20:22:21;99507.97;;;6.79
25985;BMP280;66753;53.848;10.658;2024-02-23T20:37:22;99520.28;;;6.75
25985;BMP280;66753;53.848;10.658;2024-02-23T20:52:25;99537.50;;;6.73
25985;BMP280;66753;53.848;10.658;2024-02-23T21:07:27;99566.34;;;6.69
25985;BMP280;66753;53.848;10.658;2024-02-23T21:22:29;99560.78;;;6.59
25985;BMP280;66753;53.848;10.658;2024-02-23T21:37:31;99574.06;;;6.38
25985;BMP280;66753;53.848;10.658;2024-02-23T21:52:34;99582.81;;;6.42
25985;BMP280;66753;53.848;10.658;2024-02-23T22:07:38;99583.59;;;6.43
25985;BMP280;66753;53.848;10.658;2024-02-23T22:22:41;99568.16;;;6.17
25985;BMP280;66753;53.848;10.658;2024-02-23T22:37:44;99557.50;;;5.78
25985;BMP280;66753;53.848;10.658;2024-02-23T22:52:45;99559.88;;;5.38
25985;BMP280;66753;53.848;10.658;2024-02-23T23:07:46;99560.72;;;5.18
25985;BMP280;66753;53.848;10.658;2024-02-23T23:22:48;99589.13;;;4.95
25985;BMP280;66753;53.848;10.658;2024-02-23T23:37:49;99604.91;;;4.87
25985;BMP280;66753;53.848;10.658;2024-02-23T23:52:50;99615.38;;;4.95
